03:49
Airports
History
Links
Donate
Help keep this website running!
PayPal
Bitcoin
Information on this page is community maintained and may be outdated or inaccurate and is intended for reference only or PC simulator navigating!
Always use approved charts for navigating.
SBBP
Aeroporto Estadual Arthur Siqueira
Aeroporto Estadual Arthur Siqueira (SBBP)
Bragança Paulista, São Paulo, Brazil (12916)
(U)
Lat/Lng:22° 58' 45" S / 46° 32' 15" W
-22.979167 / -46.5375
Elevation:2887'ft 880mMSL
ID / ICAO:SBBP
Runways:1
Longest:(16-34) 1,223.1m 4,013ft Asphalt
Distance To
Airport ID:
Nearby WeatherUpdated 03-25-17 03:00 GMT
Nearby weather at SBGR, Sao Paulo - Guarulhos located 31.6 nautical miles from SBBP
Altimeter: 30.03
Visibility: 5.0 statute miles
Wind: 3 knots (110°)
Temp: 19°c 66°f
Humidity: 100.0%

METAR: SBGR 250300Z 11003KT 8000 NSC 19/19 Q1017

(Powered by phpweather)
Runway 16 / 34
Dimensions:1223.1 x 29.9m 4013' x 98'ft
Surface:Asphalt
Runway 16 [A]Runway 34 [B]
Heading:141°TH 321°TH
Lat:
Lng:
22° 58' 29.42"S
46° 32' 28.37"W
22° 59' 0.58"S
46° 32' 1.63"W
Google Map
Nearby Airports
(U) AEROPORTO ESTADUAL ARTHUR SIQUEIRA 0.0 NM
SDBP NE 46°
(U) Fazenda Vale Eldorado 6.4 NM
SDVH WSW 254°
4 Atibaia 10.5 NM
SDTB SSW 192°
(C) Jundiai 29.4 NM
SBJD WSW 241°
(C) Sao Paulo - Guarulhos 31.6 NM
SBGR (WX) S 171°
4 Monte Verde 32.9 NM
SNEJ ENE 75°
(U) Tres Marias 36.9 NM
SDWL WSW 246°
VFR Chart
Flight Planning at SkyVector.com